sensor_id;sensor_type;location;lat;lon;timestamp;pressure;altitude;pressure_sealevel;temperature;humidity
26083;BME280;13848;49.018;12.078;2022-08-21T00:01:32;97692.22;;;18.32;85.68
26083;BME280;13848;49.018;12.078;2022-08-21T00:04:03;97698.53;;;18.32;85.70
26083;BME280;13848;49.018;12.078;2022-08-21T00:06:29;97691.41;;;18.31;85.42
26083;BME280;13848;49.018;12.078;2022-08-21T00:08:55;97687.59;;;18.32;85.38
26083;BME280;13848;49.018;12.078;2022-08-21T00:11:21;97691.41;;;18.31;85.41
26083;BME280;13848;49.018;12.078;2022-08-21T00:13:47;97696.03;;;18.31;85.09
26083;BME280;13848;49.018;12.078;2022-08-21T00:16:13;97691.97;;;18.28;85.44
26083;BME280;13848;49.018;12.078;2022-08-21T00:18:40;97694.16;;;18.26;85.55
26083;BME280;13848;49.018;12.078;2022-08-21T00:21:06;97679.94;;;18.24;85.60
26083;BME280;13848;49.018;12.078;2022-08-21T00:23:33;97678.31;;;18.23;85.89
26083;BME280;13848;49.018;12.078;2022-08-21T00:25:59;97682.94;;;18.23;85.95
26083;BME280;13848;49.018;12.078;2022-08-21T00:28:25;97679.94;;;18.24;85.64
26083;BME280;13848;49.018;12.078;2022-08-21T00:30:51;97680.50;;;18.21;85.88
26083;BME280;13848;49.018;12.078;2022-08-21T00:33:17;97673.38;;;18.20;85.51
26083;BME280;13848;49.018;12.078;2022-08-21T00:35:44;97679.69;;;18.21;85.65
26083;BME280;13848;49.018;12.078;2022-08-21T00:38:10;97673.94;;;18.17;85.82
26083;BME280;13848;49.018;12.078;2022-08-21T00:40:40;97679.38;;;18.17;85.75
26083;BME280;13848;49.018;12.078;2022-08-21T00:43:08;97672.84;;;18.18;85.48
26083;BME280;13848;49.018;12.078;2022-08-21T00:45:35;97666.84;;;18.16;85.26
26083;BME280;13848;49.018;12.078;2022-08-21T00:48:00;97664.09;;;18.11;85.84
26083;BME280;13848;49.018;12.078;2022-08-21T00:50:29;97669.28;;;18.07;85.88
26083;BME280;13848;49.018;12.078;2022-08-21T00:52:58;97669.53;;;18.06;85.93
26083;BME280;13848;49.018;12.078;2022-08-21T00:55:25;97661.34;;;18.06;85.91
26083;BME280;13848;49.018;12.078;2022-08-21T00:57:54;97665.72;;;18.07;85.80
26083;BME280;13848;49.018;12.078;2022-08-21T01:00:24;97672.28;;;18.06;85.79
26083;BME280;13848;49.018;12.078;2022-08-21T01:02:51;97666.81;;;18.06;85.67
26083;BME280;13848;49.018;12.078;2022-08-21T01:05:17;97669.28;;;18.07;85.66
26083;BME280;13848;49.018;12.078;2022-08-21T01:07:43;97665.44;;;18.08;85.45
26083;BME280;13848;49.018;12.078;2022-08-21T01:10:11;97667.34;;;18.03;86.02
26083;BME280;13848;49.018;12.078;2022-08-21T01:12:37;97659.16;;;18.08;85.81
26083;BME280;13848;49.018;12.078;2022-08-21T01:15:05;97663.81;;;18.07;85.68
26083;BME280;13848;49.018;12.078;2022-08-21T01:17:32;97664.09;;;18.06;86.23
26083;BME280;13848;49.018;12.078;2022-08-21T01:19:59;97666.81;;;18.06;85.90
26083;BME280;13848;49.018;12.078;2022-08-21T01:22:26;97652.06;;;18.07;86.05
26083;BME280;13848;49.018;12.078;2022-08-21T01:24:53;97660.28;;;18.12;85.92
26083;BME280;13848;49.018;12.078;2022-08-21T01:27:19;97659.19;;;18.13;86.38
26083;BME280;13848;49.018;12.078;2022-08-21T01:29:51;97660.84;;;18.09;86.30
26083;BME280;13848;49.018;12.078;2022-08-21T01:32:20;97657.00;;;18.10;86.31
26083;BME280;13848;49.018;12.078;2022-08-21T01:34:48;97660.28;;;18.12;86.38
26083;BME280;13848;49.018;12.078;2022-08-21T01:37:15;97664.09;;;18.11;86.45
26083;BME280;13848;49.018;12.078;2022-08-21T01:39:43;97653.19;;;18.11;86.32
26083;BME280;13848;49.018;12.078;2022-08-21T01:42:09;97662.47;;;18.10;86.10
26083;BME280;13848;49.018;12.078;2022-08-21T01:44:35;97667.94;;;18.10;86.44
26083;BME280;13848;49.018;12.078;2022-08-21T01:47:04;97668.44;;;18.07;86.78
26083;BME280;13848;49.018;12.078;2022-08-21T01:49:31;97669.28;;;18.07;86.22
26083;BME280;13848;49.018;12.078;2022-08-21T01:51:57;97666.53;;;18.07;86.13
26083;BME280;13848;49.018;12.078;2022-08-21T01:54:23;97668.19;;;18.03;86.26
26083;BME280;13848;49.018;12.078;2022-08-21T01:56:52;97665.72;;;18.02;86.02
26083;BME280;13848;49.018;12.078;2022-08-21T01:59:18;97667.38;;;17.98;86.74
26083;BME280;13848;49.018;12.078;2022-08-21T02:01:44;97662.16;;;17.96;86.29
26083;BME280;13848;49.018;12.078;2022-08-21T02:04:11;97666.53;;;17.92;86.60
26083;BME280;13848;49.018;12.078;2022-08-21T02:06:37;97658.06;;;17.94;86.59
26083;BME280;13848;49.018;12.078;2022-08-21T02:09:05;97662.41;;;17.90;86.83
26083;BME280;13848;49.018;12.078;2022-08-21T02:11:32;97659.16;;;17.88;86.66
26083;BME280;13848;49.018;12.078;2022-08-21T02:13:59;97652.06;;;17.87;86.72
26083;BME280;13848;49.018;12.078;2022-08-21T02:16:25;97656.41;;;17.83;86.83
26083;BME280;13848;49.018;12.078;2022-08-21T02:18:51;97652.84;;;17.82;86.91
26083;BME280;13848;49.018;12.078;2022-08-21T02:21:17;97647.69;;;17.80;87.07
26083;BME280;13848;49.018;12.078;2022-08-21T02:23:43;97649.59;;;17.80;86.54
26083;BME280;13848;49.018;12.078;2022-08-21T02:26:10;97651.47;;;17.79;86.42
26083;BME280;13848;49.018;12.078;2022-08-21T02:28:37;97643.28;;;17.79;86.50
26083;BME280;13848;49.018;12.078;2022-08-21T02:31:06;97652.84;;;17.77;86.58
26083;BME280;13848;49.018;12.078;2022-08-21T02:33:32;97648.75;;;17.79;86.25
26083;BME280;13848;49.018;12.078;2022-08-21T02:35:58;97649.31;;;17.81;86.32
26083;BME280;13848;49.018;12.078;2022-08-21T02:38:26;97656.94;;;17.79;86.33
26083;BME280;13848;49.018;12.078;2022-08-21T02:40:53;97650.41;;;17.75;86.60
26083;BME280;13848;49.018;12.078;2022-08-21T02:43:21;97653.66;;;17.77;86.57
26083;BME280;13848;49.018;12.078;2022-08-21T02:45:48;97655.28;;;17.78;86.41
26083;BME280;13848;49.018;12.078;2022-08-21T02:48:20;97649.03;;;17.78;86.17
26083;BME280;13848;49.018;12.078;2022-08-21T02:50:48;97650.94;;;17.77;85.95
26083;BME280;13848;49.018;12.078;2022-08-21T02:53:17;97647.66;;;17.75;86.23
26083;BME280;13848;49.018;12.078;2022-08-21T02:55:45;97655.56;;;17.72;86.28
26083;BME280;13848;49.018;12.078;2022-08-21T02:58:11;97652.25;;;17.70;86.18
26083;BME280;13848;49.018;12.078;2022-08-21T03:00:37;97642.16;;;17.70;86.18
26083;BME280;13848;49.018;12.078;2022-08-21T03:03:04;97648.72;;;17.69;85.93
26083;BME280;13848;49.018;12.078;2022-08-21T03:05:33;97631.22;;;17.60;85.98
26083;BME280;13848;49.018;12.078;2022-08-21T03:08:00;97639.44;;;17.70;86.03
26083;BME280;13848;49.018;12.078;2022-08-21T03:10:27;97654.69;;;17.66;86.29
26083;BME280;13848;49.018;12.078;2022-08-21T03:12:54;97652.78;;;17.67;86.22
26083;BME280;13848;49.018;12.078;2022-08-21T03:15:21;97647.31;;;17.67;85.81
26083;BME280;13848;49.018;12.078;2022-08-21T03:17:48;97654.16;;;17.64;85.87
26083;BME280;13848;49.018;12.078;2022-08-21T03:20:15;97658.47;;;17.60;85.78
26083;BME280;13848;49.018;12.078;2022-08-21T03:22:43;97654.66;;;17.61;85.79
26083;BME280;13848;49.018;12.078;2022-08-21T03:25:09;97654.63;;;17.51;85.84
26083;BME280;13848;49.018;12.078;2022-08-21T03:27:35;97659.25;;;17.50;86.22
26083;BME280;13848;49.018;12.078;2022-08-21T03:30:01;97651.06;;;17.50;86.45
26083;BME280;13848;49.018;12.078;2022-08-21T03:32:28;97661.16;;;17.50;86.33
26083;BME280;13848;49.018;12.078;2022-08-21T03:34:53;97658.19;;;17.56;86.00
26083;BME280;13848;49.018;12.078;2022-08-21T03:37:19;97658.47;;;17.60;86.19
26083;BME280;13848;49.018;12.078;2022-08-21T03:39:47;97660.13;;;17.61;85.72
26083;BME280;13848;49.018;12.078;2022-08-21T03:42:12;97660.66;;;17.58;86.13
26083;BME280;13848;49.018;12.078;2022-08-21T03:44:38;97664.19;;;17.53;86.38
26083;BME280;13848;49.018;12.078;2022-08-21T03:47:04;97666.63;;;17.55;86.93
26083;BME280;13848;49.018;12.078;2022-08-21T03:49:31;97659.56;;;17.59;86.53
26083;BME280;13848;49.018;12.078;2022-08-21T03:51:57;97669.38;;;17.60;86.46
26083;BME280;13848;49.018;12.078;2022-08-21T03:54:23;97659.56;;;17.54;86.28
26083;BME280;13848;49.018;12.078;2022-08-21T03:56:50;97671.56;;;17.53;86.50
26083;BME280;13848;49.018;12.078;2022-08-21T03:59:16;97671.28;;;17.54;86.36
26083;BME280;13848;49.018;12.078;2022-08-21T04:01:51;97670.75;;;17.58;85.73
26083;BME280;13848;49.018;12.078;2022-08-21T04:04:17;97677.56;;;17.60;86.05
26083;BME280;13848;49.018;12.078;2022-08-21T04:06:42;97680.56;;;17.59;86.24
26083;BME280;13848;49.018;12.078;2022-08-21T04:09:08;97687.38;;;17.61;85.56
26083;BME280;13848;49.018;12.078;2022-08-21T04:11:34;97684.38;;;17.58;85.57
26083;BME280;13848;49.018;12.078;2022-08-21T04:14:01;97683.81;;;17.55;86.14
26083;BME280;13848;49.018;12.078;2022-08-21T04:16:27;97686.28;;;17.57;85.69
26083;BME280;13848;49.018;12.078;2022-08-21T04:18:53;97676.22;;;17.58;86.16
26083;BME280;13848;49.018;12.078;2022-08-21T04:21:19;97683.00;;;17.55;85.91
26083;BME280;13848;49.018;12.078;2022-08-21T04:23:45;97679.72;;;17.53;86.39
26083;BME280;13848;49.018;12.078;2022-08-21T04:26:11;97680.28;;;17.55;86.02
26083;BME280;13848;49.018;12.078;2022-08-21T04:28:37;97687.94;;;17.58;86.03
26083;BME280;13848;49.018;12.078;2022-08-21T04:31:04;97688.19;;;17.56;85.85
26083;BME280;13848;49.018;12.078;2022-08-21T04:33:30;97684.59;;;17.51;85.74
26083;BME280;13848;49.018;12.078;2022-08-21T04:35:56;97684.06;;;17.49;85.69
26083;BME280;13848;49.018;12.078;2022-08-21T04:38:22;97698.78;;;17.48;85.66
26083;BME280;13848;49.018;12.078;2022-08-21T04:40:49;97700.97;;;17.46;85.58
26083;BME280;13848;49.018;12.078;2022-08-21T04:43:15;97699.34;;;17.50;85.31
26083;BME280;13848;49.018;12.078;2022-08-21T04:45:44;97693.88;;;17.50;85.21
26083;BME280;13848;49.018;12.078;2022-08-21T04:48:12;97701.00;;;17.56;85.32
26083;BME280;13848;49.018;12.078;2022-08-21T04:50:41;97698.81;;;17.53;85.49
26083;BME280;13848;49.018;12.078;2022-08-21T04:53:10;97702.06;;;17.50;85.76
26083;BME280;13848;49.018;12.078;2022-08-21T04:55:38;97712.44;;;17.53;85.02
26083;BME280;13848;49.018;12.078;2022-08-21T04:58:05;97710.25;;;17.55;85.13
26083;BME280;13848;49.018;12.078;2022-08-21T05:00:32;97711.09;;;17.55;85.19
26083;BME280;13848;49.018;12.078;2022-08-21T05:02:59;97705.34;;;17.52;85.23
26083;BME280;13848;49.018;12.078;2022-08-21T05:05:28;97713.56;;;17.57;85.25
26083;BME280;13848;49.018;12.078;2022-08-21T05:07:55;97710.81;;;17.52;85.08
26083;BME280;13848;49.018;12.078;2022-08-21T05:10:22;97716.53;;;17.55;85.30
26083;BME280;13848;49.018;12.078;2022-08-21T05:12:49;97721.75;;;17.57;85.33
26083;BME280;13848;49.018;12.078;2022-08-21T05:15:15;97720.59;;;17.48;85.58
26083;BME280;13848;49.018;12.078;2022-08-21T05:17:41;97725.50;;;17.51;85.30
26083;BME280;13848;49.018;12.078;2022-08-21T05:20:08;97721.69;;;17.47;84.91
26083;BME280;13848;49.018;12.078;2022-08-21T05:22:35;97720.59;;;17.48;85.25
26083;BME280;13848;49.018;12.078;2022-08-21T05:25:01;97717.31;;;17.46;85.36
26083;BME280;13848;49.018;12.078;2022-08-21T05:27:27;97721.41;;;17.48;85.54
26083;BME280;13848;49.018;12.078;2022-08-21T05:29:53;97725.22;;;17.47;85.47
26083;BME280;13848;49.018;12.078;2022-08-21T05:32:19;97722.22;;;17.49;85.22
26083;BME280;13848;49.018;12.078;2022-08-21T05:34:45;97727.41;;;17.50;85.27
26083;BME280;13848;49.018;12.078;2022-08-21T05:37:11;97729.63;;;17.53;85.41
26083;BME280;13848;49.018;12.078;2022-08-21T05:39:38;97735.88;;;17.54;85.44
26083;BME280;13848;49.018;12.078;2022-08-21T05:42:05;97737.00;;;17.58;85.45
26083;BME280;13848;49.018;12.078;2022-08-21T05:44:31;97736.72;;;17.54;85.18
26083;BME280;13848;49.018;12.078;2022-08-21T05:47:04;97737.53;;;17.55;85.13
26083;BME280;13848;49.018;12.078;2022-08-21T05:49:30;97746.78;;;17.54;85.53
26083;BME280;13848;49.018;12.078;2022-08-21T05:51:56;97747.31;;;17.51;85.71
26083;BME280;13848;49.018;12.078;2022-08-21T05:54:22;97735.84;;;17.49;85.40
26083;BME280;13848;49.018;12.078;2022-08-21T05:56:49;97746.28;;;17.57;85.35
26083;BME280;13848;49.018;12.078;2022-08-21T05:59:15;97744.91;;;17.60;85.16
26083;BME280;13848;49.018;12.078;2022-08-21T06:01:41;97742.47;;;17.58;85.33
26083;BME280;13848;49.018;12.078;2022-08-21T06:04:07;97737.56;;;17.60;85.23
26083;BME280;13848;49.018;12.078;2022-08-21T06:06:33;97743.28;;;17.59;85.04
26083;BME280;13848;49.018;12.078;2022-08-21T06:08:59;97734.00;;;17.60;85.19
26083;BME280;13848;49.018;12.078;2022-08-21T06:11:25;97732.13;;;17.65;85.07
26083;BME280;13848;49.018;12.078;2022-08-21T06:13:52;97735.97;;;17.69;85.17
26083;BME280;13848;49.018;12.078;2022-08-21T06:16:18;97739.81;;;17.73;84.98
26083;BME280;13848;49.018;12.078;2022-08-21T06:18:45;97738.19;;;17.72;84.81
26083;BME280;13848;49.018;12.078;2022-08-21T06:21:11;97742.53;;;17.73;84.69
26083;BME280;13848;49.018;12.078;2022-08-21T06:23:37;97743.06;;;17.70;85.36
26083;BME280;13848;49.018;12.078;2022-08-21T06:26:05;97742.47;;;17.68;85.97
26083;BME280;13848;49.018;12.078;2022-08-21T06:28:32;97745.28;;;17.73;85.96
26083;BME280;13848;49.018;12.078;2022-08-21T06:30:59;97738.75;;;17.79;85.51
26083;BME280;13848;49.018;12.078;2022-08-21T06:33:25;97740.94;;;17.83;85.33
26083;BME280;13848;49.018;12.078;2022-08-21T06:35:51;97739.28;;;17.76;85.19
26083;BME280;13848;49.018;12.078;2022-08-21T06:38:17;97744.19;;;17.79;85.02
26083;BME280;13848;49.018;12.078;2022-08-21T06:40:43;97742.84;;;17.77;84.68
26083;BME280;13848;49.018;12.078;2022-08-21T06:43:11;97745.28;;;17.78;84.63
26083;BME280;13848;49.018;12.078;2022-08-21T06:45:39;97743.13;;;17.80;84.42
26083;BME280;13848;49.018;12.078;2022-08-21T06:48:06;97733.03;;;17.76;84.10
26083;BME280;13848;49.018;12.078;2022-08-21T06:50:32;97740.41;;;17.80;83.88
26083;BME280;13848;49.018;12.078;2022-08-21T06:53:00;97739.34;;;17.87;83.86
26083;BME280;13848;49.018;12.078;2022-08-21T06:55:26;97738.78;;;17.90;84.53
26083;BME280;13848;49.018;12.078;2022-08-21T06:57:52;97736.09;;;17.95;84.38
26083;BME280;13848;49.018;12.078;2022-08-21T07:00:18;97735.00;;;17.96;84.09
26083;BME280;13848;49.018;12.078;2022-08-21T07:02:44;97731.75;;;17.99;84.19
26083;BME280;13848;49.018;12.078;2022-08-21T07:05:11;97722.97;;;17.97;83.39
26083;BME280;13848;49.018;12.078;2022-08-21T07:07:37;97735.81;;;18.01;83.65
26083;BME280;13848;49.018;12.078;2022-08-21T07:10:03;97739.34;;;17.97;83.38
26083;BME280;13848;49.018;12.078;2022-08-21T07:12:29;97746.47;;;17.98;83.14
26083;BME280;13848;49.018;12.078;2022-08-21T07:14:55;97742.09;;;18.02;83.08
26083;BME280;13848;49.018;12.078;2022-08-21T07:17:21;97747.03;;;18.00;83.22
26083;BME280;13848;49.018;12.078;2022-08-21T07:19:47;97753.31;;;18.05;83.58
26083;BME280;13848;49.018;12.078;2022-08-21T07:22:16;97745.94;;;18.01;84.04
26083;BME280;13848;49.018;12.078;2022-08-21T07:24:43;97737.75;;;18.06;83.23
26083;BME280;13848;49.018;12.078;2022-08-21T07:27:09;97741.03;;;18.08;82.90
26083;BME280;13848;49.018;12.078;2022-08-21T07:29:35;97741.03;;;18.08;83.10
26083;BME280;13848;49.018;12.078;2022-08-21T07:32:01;97732.34;;;18.16;83.24
26083;BME280;13848;49.018;12.078;2022-08-21T07:34:27;97737.53;;;18.23;83.41
26083;BME280;13848;49.018;12.078;2022-08-21T07:36:53;97737.81;;;18.31;83.67
26083;BME280;13848;49.018;12.078;2022-08-21T07:39:20;97738.09;;;18.30;83.14
26083;BME280;13848;49.018;12.078;2022-08-21T07:41:46;97734.25;;;18.31;83.18
26083;BME280;13848;49.018;12.078;2022-08-21T07:44:12;97732.09;;;18.33;82.87
26083;BME280;13848;49.018;12.078;2022-08-21T07:46:38;97735.88;;;18.32;82.20
26083;BME280;13848;49.018;12.078;2022-08-21T07:49:04;97738.63;;;18.32;82.07
26083;BME280;13848;49.018;12.078;2022-08-21T07:51:30;97740.53;;;18.31;81.87
26083;BME280;13848;49.018;12.078;2022-08-21T07:53:57;97740.81;;;18.35;81.98
26083;BME280;13848;49.018;12.078;2022-08-21T07:56:25;97740.03;;;18.40;82.47
26083;BME280;13848;49.018;12.078;2022-08-21T07:58:51;97738.94;;;18.41;82.29
26083;BME280;13848;49.018;12.078;2022-08-21T08:01:18;97736.47;;;18.49;82.24
26083;BME280;13848;49.018;12.078;2022-08-21T08:03:44;97731.28;;;18.53;81.61
26083;BME280;13848;49.018;12.078;2022-08-21T08:06:11;97737.31;;;18.50;81.48
26083;BME280;13848;49.018;12.078;2022-08-21T08:08:37;97743.31;;;18.57;81.64
26083;BME280;13848;49.018;12.078;2022-08-21T08:11:03;97745.50;;;18.65;82.04
26083;BME280;13848;49.018;12.078;2022-08-21T08:13:30;97739.25;;;18.75;81.74
26083;BME280;13848;49.018;12.078;2022-08-21T08:15:56;97738.44;;;18.74;81.24
26083;BME280;13848;49.018;12.078;2022-08-21T08:18:22;97744.97;;;18.78;81.18
26083;BME280;13848;49.018;12.078;2022-08-21T08:20:48;97742.28;;;18.73;81.16
26083;BME280;13848;49.018;12.078;2022-08-21T08:23:14;97746.63;;;18.74;81.23
26083;BME280;13848;49.018;12.078;2022-08-21T08:25:41;97740.59;;;18.72;82.09
26083;BME280;13848;49.018;12.078;2022-08-21T08:28:07;97750.44;;;18.78;81.96
26083;BME280;13848;49.018;12.078;2022-08-21T08:30:34;97748.53;;;18.89;81.95
26083;BME280;13848;49.018;12.078;2022-08-21T08:33:00;97741.72;;;18.97;81.63
26083;BME280;13848;49.018;12.078;2022-08-21T08:35:26;97743.34;;;18.93;81.98
26083;BME280;13848;49.018;12.078;2022-08-21T08:37:53;97751.56;;;18.93;82.32
26083;BME280;13848;49.018;12.078;2022-08-21T08:40:24;97744.16;;;18.78;82.22
26083;BME280;13848;49.018;12.078;2022-08-21T08:42:53;97746.06;;;18.82;82.34
26083;BME280;13848;49.018;12.078;2022-08-21T08:45:21;97746.63;;;18.95;82.42
26083;BME280;13848;49.018;12.078;2022-08-21T08:47:52;97741.72;;;19.02;81.88
26083;BME280;13848;49.018;12.078;2022-08-21T08:50:22;97750.16;;;19.05;82.12
26083;BME280;13848;49.018;12.078;2022-08-21T08:52:53;97744.41;;;19.17;82.51
26083;BME280;13848;49.018;12.078;2022-08-21T08:55:23;97747.69;;;19.24;81.56
26083;BME280;13848;49.018;12.078;2022-08-21T08:57:53;97741.66;;;19.27;81.82
26083;BME280;13848;49.018;12.078;2022-08-21T09:00:21;97755.31;;;19.37;80.36
26083;BME280;13848;49.018;12.078;2022-08-21T09:02:51;97747.66;;;19.39;80.51
26083;BME280;13848;49.018;12.078;2022-08-21T09:05:22;97751.50;;;19.33;80.24
26083;BME280;13848;49.018;12.078;2022-08-21T09:07:59;97751.75;;;19.42;80.38
26083;BME280;13848;49.018;12.078;2022-08-21T09:10:37;97761.03;;;19.41;79.87
26083;BME280;13848;49.018;12.078;2022-08-21T09:13:09;97750.94;;;19.36;80.09
26083;BME280;13848;49.018;12.078;2022-08-21T09:15:46;97755.56;;;19.46;79.82
26083;BME280;13848;49.018;12.078;2022-08-21T09:18:28;97753.38;;;19.48;79.53
26083;BME280;13848;49.018;12.078;2022-08-21T09:21:11;97753.41;;;19.38;79.45
26083;BME280;13848;49.018;12.078;2022-08-21T09:23:47;97744.31;;;19.53;80.02
26083;BME280;13848;49.018;12.078;2022-08-21T09:26:17;97748.69;;;19.64;80.14
26083;BME280;13848;49.018;12.078;2022-08-21T09:28:44;97749.53;;;19.64;79.38
26083;BME280;13848;49.018;12.078;2022-08-21T09:31:16;97742.94;;;19.65;79.17
26083;BME280;13848;49.018;12.078;2022-08-21T09:33:48;97753.00;;;19.85;79.37
26083;BME280;13848;49.018;12.078;2022-08-21T09:36:23;97747.19;;;20.02;78.33
26083;BME280;13848;49.018;12.078;2022-08-21T09:38:53;97746.09;;;20.03;78.82
26083;BME280;13848;49.018;12.078;2022-08-21T09:41:26;97748.34;;;19.91;77.41
26083;BME280;13848;49.018;12.078;2022-08-21T09:43:53;97749.13;;;19.97;76.99
26083;BME280;13848;49.018;12.078;2022-08-21T09:46:21;97752.91;;;20.06;77.72
26083;BME280;13848;49.018;12.078;2022-08-21T09:48:51;97753.09;;;20.25;77.69
26083;BME280;13848;49.018;12.078;2022-08-21T09:51:18;97752.19;;;20.34;77.05
26083;BME280;13848;49.018;12.078;2022-08-21T09:53:48;97753.88;;;20.30;76.50
26083;BME280;13848;49.018;12.078;2022-08-21T09:56:26;97755.47;;;20.41;76.29
26083;BME280;13848;49.018;12.078;2022-08-21T09:58:52;97746.19;;;20.32;76.16
26083;BME280;13848;49.018;12.078;2022-08-21T10:01:23;97752.50;;;20.33;75.36
26083;BME280;13848;49.018;12.078;2022-08-21T10:04:02;97747.84;;;20.33;75.16
26083;BME280;13848;49.018;12.078;2022-08-21T10:06:29;97746.97;;;20.43;75.16
26083;BME280;13848;49.018;12.078;2022-08-21T10:09:04;97748.59;;;20.88;75.92
26083;BME280;13848;49.018;12.078;2022-08-21T10:11:31;97738.50;;;21.13;73.58
26083;BME280;13848;49.018;12.078;2022-08-21T10:14:02;97736.75;;;21.22;73.69
26083;BME280;13848;49.018;12.078;2022-08-21T10:16:39;97733.94;;;21.32;73.71
26083;BME280;13848;49.018;12.078;2022-08-21T10:19:16;97729.41;;;21.46;72.82
26083;BME280;13848;49.018;12.078;2022-08-21T10:21:59;97736.28;;;21.44;71.13
26083;BME280;13848;49.018;12.078;2022-08-21T10:24:29;97730.44;;;21.50;71.42
26083;BME280;13848;49.018;12.078;2022-08-21T10:27:02;97729.22;;;21.62;70.96
26083;BME280;13848;49.018;12.078;2022-08-21T10:29:42;97733.13;;;21.26;70.69
26083;BME280;13848;49.018;12.078;2022-08-21T10:32:19;97725.38;;;21.63;72.23
26083;BME280;13848;49.018;12.078;2022-08-21T10:34:56;97722.47;;;22.21;71.03
26083;BME280;13848;49.018;12.078;2022-08-21T10:37:35;97716.88;;;22.64;69.54
26083;BME280;13848;49.018;12.078;2022-08-21T10:40:12;97713.00;;;22.65;69.53
26083;BME280;13848;49.018;12.078;2022-08-21T10:42:51;97710.94;;;22.56;68.09
26083;BME280;13848;49.018;12.078;2022-08-21T10:45:29;97712.97;;;22.51;67.86
26083;BME280;13848;49.018;12.078;2022-08-21T10:48:04;97716.06;;;22.25;66.97
26083;BME280;13848;49.018;12.078;2022-08-21T10:50:37;97715.25;;;22.25;67.09
26083;BME280;13848;49.018;12.078;2022-08-21T10:53:15;97710.50;;;22.68;66.42
26083;BME280;13848;49.018;12.078;2022-08-21T10:55:52;97705.06;;;23.15;66.06
26083;BME280;13848;49.018;12.078;2022-08-21T10:58:25;97712.97;;;22.83;66.45
26083;BME280;13848;49.018;12.078;2022-08-21T11:00:55;97708.72;;;22.58;65.70
26083;BME280;13848;49.018;12.078;2022-08-21T11:03:24;97710.22;;;22.83;67.30
26083;BME280;13848;49.018;12.078;2022-08-21T11:05:54;97712.09;;;22.88;65.70
26083;BME280;13848;49.018;12.078;2022-08-21T11:08:26;97710.31;;;22.97;67.35
26083;BME280;13848;49.018;12.078;2022-08-21T11:10:58;97707.94;;;23.37;64.12
26083;BME280;13848;49.018;12.078;2022-08-21T11:13:29;97698.16;;;23.45;64.45
26083;BME280;13848;49.018;12.078;2022-08-21T11:16:02;97701.50;;;23.28;65.47
26083;BME280;13848;49.018;12.078;2022-08-21T11:18:32;97694.47;;;23.35;65.01
26083;BME280;13848;49.018;12.078;2022-08-21T11:23:52;97696.19;;;24.00;64.28
26083;BME280;13848;49.018;12.078;2022-08-21T11:26:24;97696.84;;;24.33;62.70
26083;BME280;13848;49.018;12.078;2022-08-21T11:28:58;97691.75;;;24.40;62.54
26083;BME280;13848;49.018;12.078;2022-08-21T11:31:36;97688.47;;;23.88;60.73
26083;BME280;13848;49.018;12.078;2022-08-21T11:34:15;97687.25;;;23.81;63.41
26083;BME280;13848;49.018;12.078;2022-08-21T11:36:51;97676.38;;;24.12;63.69
26083;BME280;13848;49.018;12.078;2022-08-21T11:39:25;97679.72;;;24.23;60.83
26083;BME280;13848;49.018;12.078;2022-08-21T11:41:57;97678.41;;;24.56;61.85
26083;BME280;13848;49.018;12.078;2022-08-21T11:44:32;97668.66;;;24.50;61.41
26083;BME280;13848;49.018;12.078;2022-08-21T11:47:10;97667.81;;;24.94;58.81
26083;BME280;13848;49.018;12.078;2022-08-21T11:50:01;97670.16;;;24.79;60.21
26083;BME280;13848;49.018;12.078;2022-08-21T11:52:34;97663.47;;;25.25;59.30
26083;BME280;13848;49.018;12.078;2022-08-21T11:55:06;97665.06;;;25.17;59.35
26083;BME280;13848;49.018;12.078;2022-08-21T11:57:37;97660.13;;;25.45;57.95
26083;BME280;13848;49.018;12.078;2022-08-21T12:00:11;97656.59;;;25.53;57.08
26083;BME280;13848;49.018;12.078;2022-08-21T12:02:43;97656.69;;;25.39;56.33
26083;BME280;13848;49.018;12.078;2022-08-21T12:05:22;97655.19;;;25.25;58.11
26083;BME280;13848;49.018;12.078;2022-08-21T12:08:05;97659.38;;;25.62;56.44
26083;BME280;13848;49.018;12.078;2022-08-21T12:10:33;97652.63;;;25.37;57.47
26083;BME280;13848;49.018;12.078;2022-08-21T12:13:06;97648.75;;;25.07;56.00
26083;BME280;13848;49.018;12.078;2022-08-21T12:15:34;97655.50;;;25.23;58.05
26083;BME280;13848;49.018;12.078;2022-08-21T12:18:03;97653.28;;;25.82;57.42
26083;BME280;13848;49.018;12.078;2022-08-21T12:20:37;97647.66;;;25.56;54.98
26083;BME280;13848;49.018;12.078;2022-08-21T12:23:19;97648.94;;;25.50;55.78
26083;BME280;13848;49.018;12.078;2022-08-21T12:26:01;97637.41;;;25.48;56.53
26083;BME280;13848;49.018;12.078;2022-08-21T12:28:28;97635.25;;;26.02;56.00
26083;BME280;13848;49.018;12.078;2022-08-21T12:30:56;97635.94;;;26.25;54.93
26083;BME280;13848;49.018;12.078;2022-08-21T12:33:26;97633.81;;;26.31;53.50
26083;BME280;13848;49.018;12.078;2022-08-21T12:36:02;97628.31;;;26.57;55.56
26083;BME280;13848;49.018;12.078;2022-08-21T12:38:34;97630.56;;;26.72;53.57
26083;BME280;13848;49.018;12.078;2022-08-21T12:41:06;97629.28;;;26.35;50.92
26083;BME280;13848;49.018;12.078;2022-08-21T12:43:37;97627.84;;;26.46;52.47
26083;BME280;13848;49.018;12.078;2022-08-21T12:46:05;97624.38;;;26.75;51.43
26083;BME280;13848;49.018;12.078;2022-08-21T12:48:39;97618.34;;;26.82;50.61
26083;BME280;13848;49.018;12.078;2022-08-21T12:51:10;97619.34;;;26.68;51.10
26083;BME280;13848;49.018;12.078;2022-08-21T12:53:44;97618.38;;;26.64;50.90
26083;BME280;13848;49.018;12.078;2022-08-21T12:56:13;97606.19;;;26.57;49.38
26083;BME280;13848;49.018;12.078;2022-08-21T12:58:40;97606.84;;;26.53;50.29
26083;BME280;13848;49.018;12.078;2022-08-21T13:01:13;97610.25;;;26.42;50.49